sensor_id;sensor_type;location;lat;lon;timestamp;temperature;humidity
18654;DHT22;9456;47.824;16.228;2023-08-21T00:00:07;21.50;99.90
18654;DHT22;9456;47.824;16.228;2023-08-21T00:02:36;21.50;99.90
18654;DHT22;9456;47.824;16.228;2023-08-21T00:05:06;21.40;99.90
18654;DHT22;9456;47.824;16.228;2023-08-21T00:07:35;21.30;99.90
18654;DHT22;9456;47.824;16.228;2023-08-21T00:10:06;21.30;99.90
18654;DHT22;9456;47.824;16.228;2023-08-21T00:12:35;21.20;99.90
18654;DHT22;9456;47.824;16.228;2023-08-21T00:15:05;21.20;99.90
18654;DHT22;9456;47.824;16.228;2023-08-21T00:17:35;21.10;99.90
18654;DHT22;9456;47.824;16.228;2023-08-21T00:20:05;21.10;99.90
18654;DHT22;9456;47.824;16.228;2023-08-21T00:22:35;21.10;99.90
18654;DHT22;9456;47.824;16.228;2023-08-21T00:25:05;21.10;99.90
18654;DHT22;9456;47.824;16.228;2023-08-21T00:27:34;21.10;99.90
18654;DHT22;9456;47.824;16.228;2023-08-21T00:30:06;21.10;99.90
18654;DHT22;9456;47.824;16.228;2023-08-21T00:32:35;21.10;99.90
18654;DHT22;9456;47.824;16.228;2023-08-21T00:35:05;21.00;99.90
18654;DHT22;9456;47.824;16.228;2023-08-21T00:37:34;21.00;99.90
18654;DHT22;9456;47.824;16.228;2023-08-21T00:40:04;21.00;99.90
18654;DHT22;9456;47.824;16.228;2023-08-21T00:42:33;21.00;99.90
18654;DHT22;9456;47.824;16.228;2023-08-21T00:45:03;20.90;99.90
18654;DHT22;9456;47.824;16.228;2023-08-21T00:47:32;20.90;99.90
18654;DHT22;9456;47.824;16.228;2023-08-21T00:50:02;20.90;99.90
18654;DHT22;9456;47.824;16.228;2023-08-21T00:52:31;20.90;99.90
18654;DHT22;9456;47.824;16.228;2023-08-21T00:55:00;20.80;99.90
18654;DHT22;9456;47.824;16.228;2023-08-21T00:57:29;20.80;99.90
18654;DHT22;9456;47.824;16.228;2023-08-21T00:59:59;20.80;99.90
18654;DHT22;9456;47.824;16.228;2023-08-21T01:02:28;20.70;99.90
18654;DHT22;9456;47.824;16.228;2023-08-21T01:04:57;20.70;99.90
18654;DHT22;9456;47.824;16.228;2023-08-21T01:07:27;20.70;99.90
18654;DHT22;9456;47.824;16.228;2023-08-21T01:09:58;20.70;99.90
18654;DHT22;9456;47.824;16.228;2023-08-21T01:12:29;20.80;99.90
18654;DHT22;9456;47.824;16.228;2023-08-21T01:14:58;20.80;99.90
18654;DHT22;9456;47.824;16.228;2023-08-21T01:17:26;20.80;99.90
18654;DHT22;9456;47.824;16.228;2023-08-21T01:19:55;20.80;99.90
18654;DHT22;9456;47.824;16.228;2023-08-21T01:22:28;20.70;99.90
18654;DHT22;9456;47.824;16.228;2023-08-21T01:24:57;20.80;99.90
18654;DHT22;9456;47.824;16.228;2023-08-21T01:27:26;20.70;99.90
18654;DHT22;9456;47.824;16.228;2023-08-21T01:29:55;20.70;99.90
18654;DHT22;9456;47.824;16.228;2023-08-21T01:32:27;20.60;99.90
18654;DHT22;9456;47.824;16.228;2023-08-21T01:34:55;20.60;99.90
18654;DHT22;9456;47.824;16.228;2023-08-21T01:37:24;20.60;99.90
18654;DHT22;9456;47.824;16.228;2023-08-21T01:39:54;20.60;99.90
18654;DHT22;9456;47.824;16.228;2023-08-21T01:42:23;20.60;99.90
18654;DHT22;9456;47.824;16.228;2023-08-21T01:44:52;20.50;99.90
18654;DHT22;9456;47.824;16.228;2023-08-21T01:47:21;20.60;99.90
18654;DHT22;9456;47.824;16.228;2023-08-21T01:49:50;20.50;99.90
18654;DHT22;9456;47.824;16.228;2023-08-21T01:52:20;20.50;99.90
18654;DHT22;9456;47.824;16.228;2023-08-21T01:54:50;20.50;99.90
18654;DHT22;9456;47.824;16.228;2023-08-21T01:57:20;20.40;99.90
18654;DHT22;9456;47.824;16.228;2023-08-21T01:59:49;20.40;99.90
18654;DHT22;9456;47.824;16.228;2023-08-21T02:02:18;20.30;99.90
18654;DHT22;9456;47.824;16.228;2023-08-21T02:04:47;20.30;99.90
18654;DHT22;9456;47.824;16.228;2023-08-21T02:07:17;20.30;99.90
18654;DHT22;9456;47.824;16.228;2023-08-21T02:09:46;20.30;99.90
18654;DHT22;9456;47.824;16.228;2023-08-21T02:12:15;20.20;99.90
18654;DHT22;9456;47.824;16.228;2023-08-21T02:14:44;20.20;99.90
18654;DHT22;9456;47.824;16.228;2023-08-21T02:17:13;20.20;99.90
18654;DHT22;9456;47.824;16.228;2023-08-21T02:19:43;20.20;99.90
18654;DHT22;9456;47.824;16.228;2023-08-21T02:22:12;20.20;99.90
18654;DHT22;9456;47.824;16.228;2023-08-21T02:24:41;20.10;99.90
18654;DHT22;9456;47.824;16.228;2023-08-21T02:27:11;20.10;99.90
18654;DHT22;9456;47.824;16.228;2023-08-21T02:29:40;20.10;99.90
18654;DHT22;9456;47.824;16.228;2023-08-21T02:32:10;20.10;99.90
18654;DHT22;9456;47.824;16.228;2023-08-21T02:34:41;20.10;99.90
18654;DHT22;9456;47.824;16.228;2023-08-21T02:37:10;20.10;99.90
18654;DHT22;9456;47.824;16.228;2023-08-21T02:39:40;20.10;99.90
18654;DHT22;9456;47.824;16.228;2023-08-21T02:42:09;20.10;99.90
18654;DHT22;9456;47.824;16.228;2023-08-21T02:44:38;20.00;99.90
18654;DHT22;9456;47.824;16.228;2023-08-21T02:47:07;20.00;99.90
18654;DHT22;9456;47.824;16.228;2023-08-21T02:49:37;20.00;99.90
18654;DHT22;9456;47.824;16.228;2023-08-21T02:52:06;20.00;99.90
18654;DHT22;9456;47.824;16.228;2023-08-21T02:54:35;20.00;99.90
18654;DHT22;9456;47.824;16.228;2023-08-21T02:57:05;20.00;99.90
18654;DHT22;9456;47.824;16.228;2023-08-21T02:59:34;19.90;99.90
18654;DHT22;9456;47.824;16.228;2023-08-21T03:02:03;19.90;99.90
18654;DHT22;9456;47.824;16.228;2023-08-21T03:04:33;19.80;99.90
18654;DHT22;9456;47.824;16.228;2023-08-21T03:07:02;19.80;99.90
18654;DHT22;9456;47.824;16.228;2023-08-21T03:09:31;19.70;99.90
18654;DHT22;9456;47.824;16.228;2023-08-21T03:12:00;19.80;99.90
18654;DHT22;9456;47.824;16.228;2023-08-21T03:14:30;19.70;99.90
18654;DHT22;9456;47.824;16.228;2023-08-21T03:16:59;19.70;99.90
18654;DHT22;9456;47.824;16.228;2023-08-21T03:19:28;19.60;99.90
18654;DHT22;9456;47.824;16.228;2023-08-21T03:21:57;19.70;99.90
18654;DHT22;9456;47.824;16.228;2023-08-21T03:24:27;19.60;99.90
18654;DHT22;9456;47.824;16.228;2023-08-21T03:26:56;19.60;99.90
18654;DHT22;9456;47.824;16.228;2023-08-21T03:29:25;19.60;99.90
18654;DHT22;9456;47.824;16.228;2023-08-21T03:31:54;19.60;99.90
18654;DHT22;9456;47.824;16.228;2023-08-21T03:34:24;19.60;99.90
18654;DHT22;9456;47.824;16.228;2023-08-21T03:36:54;19.60;99.90
18654;DHT22;9456;47.824;16.228;2023-08-21T03:39:24;19.50;99.90
18654;DHT22;9456;47.824;16.228;2023-08-21T03:41:53;19.50;99.90
18654;DHT22;9456;47.824;16.228;2023-08-21T03:44:22;19.50;99.90
18654;DHT22;9456;47.824;16.228;2023-08-21T03:46:52;19.50;99.90
18654;DHT22;9456;47.824;16.228;2023-08-21T03:49:21;19.50;99.90
18654;DHT22;9456;47.824;16.228;2023-08-21T03:51:50;19.50;99.90
18654;DHT22;9456;47.824;16.228;2023-08-21T03:54:19;19.40;99.90
18654;DHT22;9456;47.824;16.228;2023-08-21T03:56:48;19.40;99.90
18654;DHT22;9456;47.824;16.228;2023-08-21T03:59:18;19.40;99.90
18654;DHT22;9456;47.824;16.228;2023-08-21T04:01:47;19.40;99.90
18654;DHT22;9456;47.824;16.228;2023-08-21T04:04:16;19.40;99.90
18654;DHT22;9456;47.824;16.228;2023-08-21T04:06:46;19.40;99.90
18654;DHT22;9456;47.824;16.228;2023-08-21T04:09:15;19.40;99.90
18654;DHT22;9456;47.824;16.228;2023-08-21T04:11:44;19.30;99.90
18654;DHT22;9456;47.824;16.228;2023-08-21T04:14:13;19.40;99.90
18654;DHT22;9456;47.824;16.228;2023-08-21T04:16:43;19.40;99.90
18654;DHT22;9456;47.824;16.228;2023-08-21T04:19:12;19.40;99.90
18654;DHT22;9456;47.824;16.228;2023-08-21T04:21:41;19.40;99.90
18654;DHT22;9456;47.824;16.228;2023-08-21T04:24:10;19.50;99.90
18654;DHT22;9456;47.824;16.228;2023-08-21T04:26:40;19.60;99.90
18654;DHT22;9456;47.824;16.228;2023-08-21T04:29:09;19.60;99.90
18654;DHT22;9456;47.824;16.228;2023-08-21T04:31:38;19.70;99.90
18654;DHT22;9456;47.824;16.228;2023-08-21T04:34:08;19.80;99.90
18654;DHT22;9456;47.824;16.228;2023-08-21T04:36:37;19.80;99.90
18654;DHT22;9456;47.824;16.228;2023-08-21T04:39:07;19.90;99.90
18654;DHT22;9456;47.824;16.228;2023-08-21T04:41:36;19.90;99.90
18654;DHT22;9456;47.824;16.228;2023-08-21T04:44:06;20.00;99.90
18654;DHT22;9456;47.824;16.228;2023-08-21T04:46:35;20.10;99.90
18654;DHT22;9456;47.824;16.228;2023-08-21T04:49:04;20.10;99.90
18654;DHT22;9456;47.824;16.228;2023-08-21T04:51:33;20.20;99.90
18654;DHT22;9456;47.824;16.228;2023-08-21T04:54:03;20.30;99.90
18654;DHT22;9456;47.824;16.228;2023-08-21T04:56:32;20.50;99.90
18654;DHT22;9456;47.824;16.228;2023-08-21T04:59:01;20.60;99.90
18654;DHT22;9456;47.824;16.228;2023-08-21T05:01:31;20.80;99.90
18654;DHT22;9456;47.824;16.228;2023-08-21T05:04:00;21.10;99.90
18654;DHT22;9456;47.824;16.228;2023-08-21T05:06:29;21.30;99.90
18654;DHT22;9456;47.824;16.228;2023-08-21T05:08:58;21.60;99.90
18654;DHT22;9456;47.824;16.228;2023-08-21T05:11:28;21.90;99.90
18654;DHT22;9456;47.824;16.228;2023-08-21T05:13:57;22.20;99.90
18654;DHT22;9456;47.824;16.228;2023-08-21T05:16:26;22.50;99.90
18654;DHT22;9456;47.824;16.228;2023-08-21T05:18:55;22.70;99.90
18654;DHT22;9456;47.824;16.228;2023-08-21T05:21:25;23.00;99.90
18654;DHT22;9456;47.824;16.228;2023-08-21T05:23:54;23.30;99.90
18654;DHT22;9456;47.824;16.228;2023-08-21T05:26:23;23.50;99.90
18654;DHT22;9456;47.824;16.228;2023-08-21T05:28:52;23.80;99.90
18654;DHT22;9456;47.824;16.228;2023-08-21T05:31:22;24.10;99.90
18654;DHT22;9456;47.824;16.228;2023-08-21T05:33:51;24.30;99.90
18654;DHT22;9456;47.824;16.228;2023-08-21T05:36:20;24.60;99.90
18654;DHT22;9456;47.824;16.228;2023-08-21T05:38:49;24.80;99.90
18654;DHT22;9456;47.824;16.228;2023-08-21T05:41:19;25.10;99.90
18654;DHT22;9456;47.824;16.228;2023-08-21T05:43:48;25.40;99.90
18654;DHT22;9456;47.824;16.228;2023-08-21T05:46:17;25.50;99.90
18654;DHT22;9456;47.824;16.228;2023-08-21T05:48:46;25.70;99.90
18654;DHT22;9456;47.824;16.228;2023-08-21T05:51:16;26.10;99.90
18654;DHT22;9456;47.824;16.228;2023-08-21T05:53:46;26.40;99.90
18654;DHT22;9456;47.824;16.228;2023-08-21T05:56:15;26.60;99.90
18654;DHT22;9456;47.824;16.228;2023-08-21T05:58:44;26.60;99.90
18654;DHT22;9456;47.824;16.228;2023-08-21T06:01:14;26.60;99.90
18654;DHT22;9456;47.824;16.228;2023-08-21T06:03:43;26.60;99.90
18654;DHT22;9456;47.824;16.228;2023-08-21T06:06:13;26.70;99.90
18654;DHT22;9456;47.824;16.228;2023-08-21T06:08:42;26.90;99.90
18654;DHT22;9456;47.824;16.228;2023-08-21T06:11:11;27.30;99.90
18654;DHT22;9456;47.824;16.228;2023-08-21T06:13:40;27.60;99.90
18654;DHT22;9456;47.824;16.228;2023-08-21T06:16:10;27.80;99.90
18654;DHT22;9456;47.824;16.228;2023-08-21T06:18:39;28.00;99.90
18654;DHT22;9456;47.824;16.228;2023-08-21T06:21:08;28.30;99.90
18654;DHT22;9456;47.824;16.228;2023-08-21T06:23:38;28.60;99.90
18654;DHT22;9456;47.824;16.228;2023-08-21T06:26:07;28.90;99.90
18654;DHT22;9456;47.824;16.228;2023-08-21T06:28:36;29.10;99.90
18654;DHT22;9456;47.824;16.228;2023-08-21T06:31:05;29.10;99.90
18654;DHT22;9456;47.824;16.228;2023-08-21T06:33:35;29.30;99.90
18654;DHT22;9456;47.824;16.228;2023-08-21T06:36:04;29.60;99.90
18654;DHT22;9456;47.824;16.228;2023-08-21T06:38:33;29.90;99.90
18654;DHT22;9456;47.824;16.228;2023-08-21T06:41:03;30.10;99.90
18654;DHT22;9456;47.824;16.228;2023-08-21T06:43:33;30.40;99.90
18654;DHT22;9456;47.824;16.228;2023-08-21T06:46:03;30.60;99.90
18654;DHT22;9456;47.824;16.228;2023-08-21T06:48:33;30.70;99.90
18654;DHT22;9456;47.824;16.228;2023-08-21T06:51:02;30.70;99.90
18654;DHT22;9456;47.824;16.228;2023-08-21T06:53:31;31.00;99.90
18654;DHT22;9456;47.824;16.228;2023-08-21T06:56:00;31.30;99.90
18654;DHT22;9456;47.824;16.228;2023-08-21T06:58:29;31.40;99.90
18654;DHT22;9456;47.824;16.228;2023-08-21T07:00:59;31.50;99.90
18654;DHT22;9456;47.824;16.228;2023-08-21T07:03:28;31.80;99.90
18654;DHT22;9456;47.824;16.228;2023-08-21T07:05:57;32.10;99.90
18654;DHT22;9456;47.824;16.228;2023-08-21T07:08:27;32.20;99.90
18654;DHT22;9456;47.824;16.228;2023-08-21T07:10:56;32.20;99.90
18654;DHT22;9456;47.824;16.228;2023-08-21T07:13:26;32.40;99.90
18654;DHT22;9456;47.824;16.228;2023-08-21T07:15:55;32.60;99.90
18654;DHT22;9456;47.824;16.228;2023-08-21T07:18:24;32.80;99.90
18654;DHT22;9456;47.824;16.228;2023-08-21T07:20:54;32.90;99.90
18654;DHT22;9456;47.824;16.228;2023-08-21T07:23:23;33.00;99.90
18654;DHT22;9456;47.824;16.228;2023-08-21T07:25:53;33.10;99.90
18654;DHT22;9456;47.824;16.228;2023-08-21T07:28:22;33.20;99.90
18654;DHT22;9456;47.824;16.228;2023-08-21T07:30:56;33.30;99.90
18654;DHT22;9456;47.824;16.228;2023-08-21T07:33:25;33.40;99.90
18654;DHT22;9456;47.824;16.228;2023-08-21T07:36:00;33.50;99.90
18654;DHT22;9456;47.824;16.228;2023-08-21T07:38:29;33.60;99.90
18654;DHT22;9456;47.824;16.228;2023-08-21T07:41:06;33.80;99.90
18654;DHT22;9456;47.824;16.228;2023-08-21T07:43:35;33.90;99.90
18654;DHT22;9456;47.824;16.228;2023-08-21T07:46:05;34.20;99.90
18654;DHT22;9456;47.824;16.228;2023-08-21T07:48:34;34.60;99.90
18654;DHT22;9456;47.824;16.228;2023-08-21T07:51:04;34.90;99.90
18654;DHT22;9456;47.824;16.228;2023-08-21T07:53:33;35.30;98.10
18654;DHT22;9456;47.824;16.228;2023-08-21T07:56:02;35.40;97.80
18654;DHT22;9456;47.824;16.228;2023-08-21T07:58:31;35.30;98.20
18654;DHT22;9456;47.824;16.228;2023-08-21T08:01:01;35.40;97.90
18654;DHT22;9456;47.824;16.228;2023-08-21T08:03:30;35.40;97.70
18654;DHT22;9456;47.824;16.228;2023-08-21T08:05:59;35.50;96.80
18654;DHT22;9456;47.824;16.228;2023-08-21T08:08:28;35.50;97.30
18654;DHT22;9456;47.824;16.228;2023-08-21T08:11:01;35.50;97.10
18654;DHT22;9456;47.824;16.228;2023-08-21T08:13:30;35.50;95.70
18654;DHT22;9456;47.824;16.228;2023-08-21T08:15:59;35.70;95.80
18654;DHT22;9456;47.824;16.228;2023-08-21T08:18:29;35.90;94.50
18654;DHT22;9456;47.824;16.228;2023-08-21T08:20:58;35.70;95.40
18654;DHT22;9456;47.824;16.228;2023-08-21T08:23:27;35.90;94.60
18654;DHT22;9456;47.824;16.228;2023-08-21T08:25:56;36.10;94.30
18654;DHT22;9456;47.824;16.228;2023-08-21T08:28:26;36.20;93.80
18654;DHT22;9456;47.824;16.228;2023-08-21T08:30:55;36.20;92.70
18654;DHT22;9456;47.824;16.228;2023-08-21T08:33:24;36.10;94.10
18654;DHT22;9456;47.824;16.228;2023-08-21T08:35:53;36.20;91.40
18654;DHT22;9456;47.824;16.228;2023-08-21T08:38:23;36.40;91.20
18654;DHT22;9456;47.824;16.228;2023-08-21T08:40:52;36.70;93.90
18654;DHT22;9456;47.824;16.228;2023-08-21T08:43:21;36.60;94.10
18654;DHT22;9456;47.824;16.228;2023-08-21T08:45:50;36.30;94.40
18654;DHT22;9456;47.824;16.228;2023-08-21T08:48:21;36.20;94.90
18654;DHT22;9456;47.824;16.228;2023-08-21T08:50:51;36.20;95.10
18654;DHT22;9456;47.824;16.228;2023-08-21T08:53:20;36.30;94.30
18654;DHT22;9456;47.824;16.228;2023-08-21T08:55:50;36.40;94.20
18654;DHT22;9456;47.824;16.228;2023-08-21T08:58:20;36.50;94.30
18654;DHT22;9456;47.824;16.228;2023-08-21T09:00:49;36.40;93.60
18654;DHT22;9456;47.824;16.228;2023-08-21T09:03:18;36.60;93.20
18654;DHT22;9456;47.824;16.228;2023-08-21T09:05:47;36.80;93.20
18654;DHT22;9456;47.824;16.228;2023-08-21T09:08:17;36.90;96.40
18654;DHT22;9456;47.824;16.228;2023-08-21T09:10:46;36.90;95.80
18654;DHT22;9456;47.824;16.228;2023-08-21T09:13:15;36.80;95.10
18654;DHT22;9456;47.824;16.228;2023-08-21T09:15:45;36.70;94.90
18654;DHT22;9456;47.824;16.228;2023-08-21T09:18:14;36.70;95.50
18654;DHT22;9456;47.824;16.228;2023-08-21T09:20:43;36.70;94.80
18654;DHT22;9456;47.824;16.228;2023-08-21T09:23:15;36.60;94.10
18654;DHT22;9456;47.824;16.228;2023-08-21T09:25:45;36.50;94.10
18654;DHT22;9456;47.824;16.228;2023-08-21T09:28:14;36.50;94.00
18654;DHT22;9456;47.824;16.228;2023-08-21T09:30:47;36.40;93.70
18654;DHT22;9456;47.824;16.228;2023-08-21T09:33:17;36.40;94.30
18654;DHT22;9456;47.824;16.228;2023-08-21T09:35:47;36.50;93.10
18654;DHT22;9456;47.824;16.228;2023-08-21T09:38:16;36.70;93.20
18654;DHT22;9456;47.824;16.228;2023-08-21T09:40:49;36.70;92.50
18654;DHT22;9456;47.824;16.228;2023-08-21T09:43:14;36.70;92.20
18654;DHT22;9456;47.824;16.228;2023-08-21T09:45:43;36.60;92.30
18654;DHT22;9456;47.824;16.228;2023-08-21T09:48:13;36.70;92.80
18654;DHT22;9456;47.824;16.228;2023-08-21T09:50:43;36.90;93.20
18654;DHT22;9456;47.824;16.228;2023-08-21T09:53:12;36.90;93.10
18654;DHT22;9456;47.824;16.228;2023-08-21T09:55:41;36.80;93.60
18654;DHT22;9456;47.824;16.228;2023-08-21T09:58:11;36.80;93.50
18654;DHT22;9456;47.824;16.228;2023-08-21T10:00:40;36.80;92.70
18654;DHT22;9456;47.824;16.228;2023-08-21T10:03:10;36.90;92.20
18654;DHT22;9456;47.824;16.228;2023-08-21T10:08:08;37.00;99.70
18654;DHT22;9456;47.824;16.228;2023-08-21T10:10:38;37.00;95.20
18654;DHT22;9456;47.824;16.228;2023-08-21T10:13:07;37.00;94.60
18654;DHT22;9456;47.824;16.228;2023-08-21T10:15:37;37.00;94.30
18654;DHT22;9456;47.824;16.228;2023-08-21T10:18:21;36.90;96.00
18654;DHT22;9456;47.824;16.228;2023-08-21T10:20:50;36.90;95.40
18654;DHT22;9456;47.824;16.228;2023-08-21T10:23:27;36.80;96.30
18654;DHT22;9456;47.824;16.228;2023-08-21T10:25:59;36.70;94.60
18654;DHT22;9456;47.824;16.228;2023-08-21T10:28:42;36.60;96.20
18654;DHT22;9456;47.824;16.228;2023-08-21T10:31:29;36.50;96.80
18654;DHT22;9456;47.824;16.228;2023-08-21T10:39:36;36.10;99.40
18654;DHT22;9456;47.824;16.228;2023-08-21T10:42:07;35.90;99.90
18654;DHT22;9456;47.824;16.228;2023-08-21T10:47:37;35.50;97.70
18654;DHT22;9456;47.824;16.228;2023-08-21T10:50:08;35.30;97.50
18654;DHT22;9456;47.824;16.228;2023-08-21T10:52:37;35.20;97.00
18654;DHT22;9456;47.824;16.228;2023-08-21T10:55:07;35.00;97.30
18654;DHT22;9456;47.824;16.228;2023-08-21T10:57:36;34.90;97.40
18654;DHT22;9456;47.824;16.228;2023-08-21T11:00:07;34.90;96.30
18654;DHT22;9456;47.824;16.228;2023-08-21T11:02:37;34.70;96.90
18654;DHT22;9456;47.824;16.228;2023-08-21T11:05:07;34.60;96.90
18654;DHT22;9456;47.824;16.228;2023-08-21T11:07:39;34.50;96.10
18654;DHT22;9456;47.824;16.228;2023-08-21T11:10:09;34.50;95.40
18654;DHT22;9456;47.824;16.228;2023-08-21T11:12:38;34.40;96.00
18654;DHT22;9456;47.824;16.228;2023-08-21T11:15:09;34.30;95.10
18654;DHT22;9456;47.824;16.228;2023-08-21T11:17:38;34.10;94.70
18654;DHT22;9456;47.824;16.228;2023-08-21T11:20:09;34.10;95.20
18654;DHT22;9456;47.824;16.228;2023-08-21T11:22:38;34.10;94.50
18654;DHT22;9456;47.824;16.228;2023-08-21T11:25:08;34.00;93.90
18654;DHT22;9456;47.824;16.228;2023-08-21T11:27:38;33.90;93.60
18654;DHT22;9456;47.824;16.228;2023-08-21T11:30:10;33.80;94.60
18654;DHT22;9456;47.824;16.228;2023-08-21T11:32:38;33.90;94.20
18654;DHT22;9456;47.824;16.228;2023-08-21T11:35:08;33.80;93.90
18654;DHT22;9456;47.824;16.228;2023-08-21T11:37:42;33.70;92.10
18654;DHT22;9456;47.824;16.228;2023-08-21T11:40:10;33.70;93.70
18654;DHT22;9456;47.824;16.228;2023-08-21T11:42:39;33.60;93.70
18654;DHT22;9456;47.824;16.228;2023-08-21T11:45:09;33.50;93.00
18654;DHT22;9456;47.824;16.228;2023-08-21T11:47:39;33.40;93.00
18654;DHT22;9456;47.824;16.228;2023-08-21T11:50:09;33.30;93.80
18654;DHT22;9456;47.824;16.228;2023-08-21T11:52:39;33.30;94.00
18654;DHT22;9456;47.824;16.228;2023-08-21T11:55:10;33.20;94.00
18654;DHT22;9456;47.824;16.228;2023-08-21T11:57:48;33.20;93.80
18654;DHT22;9456;47.824;16.228;2023-08-21T12:00:18;33.10;93.70
18654;DHT22;9456;47.824;16.228;2023-08-21T12:02:56;33.10;94.20
18654;DHT22;9456;47.824;16.228;2023-08-21T12:05:25;33.00;94.10
18654;DHT22;9456;47.824;16.228;2023-08-21T12:07:55;32.90;93.70
18654;DHT22;9456;47.824;16.228;2023-08-21T12:10:27;32.80;93.80
18654;DHT22;9456;47.824;16.228;2023-08-21T12:12:56;32.80;94.40
18654;DHT22;9456;47.824;16.228;2023-08-21T12:15:25;32.80;94.20
18654;DHT22;9456;47.824;16.228;2023-08-21T12:17:55;32.70;93.80
18654;DHT22;9456;47.824;16.228;2023-08-21T12:20:24;32.70;93.90
18654;DHT22;9456;47.824;16.228;2023-08-21T12:22:53;32.60;93.90
18654;DHT22;9456;47.824;16.228;2023-08-21T12:25:22;32.60;94.40
18654;DHT22;9456;47.824;16.228;2023-08-21T12:27:52;32.60;94.30
18654;DHT22;9456;47.824;16.228;2023-08-21T12:30:21;32.60;94.30
18654;DHT22;9456;47.824;16.228;2023-08-21T12:32:50;32.50;94.10
18654;DHT22;9456;47.824;16.228;2023-08-21T12:35:20;32.50;94.20
18654;DHT22;9456;47.824;16.228;2023-08-21T12:37:49;32.50;94.20
18654;DHT22;9456;47.824;16.228;2023-08-21T12:40:19;32.50;94.10
18654;DHT22;9456;47.824;16.228;2023-08-21T12:42:48;32.60;93.90
18654;DHT22;9456;47.824;16.228;2023-08-21T12:45:18;32.60;93.80
18654;DHT22;9456;47.824;16.228;2023-08-21T12:47:47;32.50;94.20
18654;DHT22;9456;47.824;16.228;2023-08-21T12:50:16;32.50;93.80
18654;DHT22;9456;47.824;16.228;2023-08-21T12:52:46;32.50;93.80
18654;DHT22;9456;47.824;16.228;2023-08-21T12:55:15;32.50;94.10
18654;DHT22;9456;47.824;16.228;2023-08-21T12:57:44;32.50;94.10
18654;DHT22;9456;47.824;16.228;2023-08-21T13:00:15;32.50;93.60
18654;DHT22;9456;47.824;16.228;2023-08-21T13:02:44;32.50;93.80
18654;DHT22;9456;47.824;16.228;2023-08-21T13:05:13;32.50;93.90
18654;DHT22;9456;47.824;16.228;2023-08-21T13:07:43;32.50;94.00
18654;DHT22;9456;47.824;16.228;2023-08-21T13:10:12;32.60;93.90
18654;DHT22;9456;47.824;16.228;2023-08-21T13:12:41;32.60;94.40
18654;DHT22;9456;47.824;16.228;2023-08-21T13:15:11;32.60;94.30
18654;DHT22;9456;47.824;16.228;2023-08-21T13:17:40;32.60;94.20
18654;DHT22;9456;47.824;16.228;2023-08-21T13:20:11;32.60;93.80
18654;DHT22;9456;47.824;16.228;2023-08-21T13:22:47;32.70;94.10
18654;DHT22;9456;47.824;16.228;2023-08-21T13:25:17;32.60;93.60
18654;DHT22;9456;47.824;16.228;2023-08-21T13:27:46;32.60;93.80
18654;DHT22;9456;47.824;16.228;2023-08-21T13:30:15;32.60;93.70
18654;DHT22;9456;47.824;16.228;2023-08-21T13:32:45;32.70;93.70
18654;DHT22;9456;47.824;16.228;2023-08-21T13:35:14;32.70;93.40
18654;DHT22;9456;47.824;16.228;2023-08-21T13:37:43;32.70;93.40
18654;DHT22;9456;47.824;16.228;2023-08-21T13:40:12;32.70;93.90
18654;DHT22;9456;47.824;16.228;2023-08-21T13:42:42;32.60;93.50
18654;DHT22;9456;47.824;16.228;2023-08-21T13:45:12;32.60;93.80
18654;DHT22;9456;47.824;16.228;2023-08-21T13:47:41;32.60;94.00
18654;DHT22;9456;47.824;16.228;2023-08-21T13:50:10;32.60;93.90
18654;DHT22;9456;47.824;16.228;2023-08-21T13:52:40;32.60;93.90
18654;DHT22;9456;47.824;16.228;2023-08-21T13:55:10;32.60;94.20
18654;DHT22;9456;47.824;16.228;2023-08-21T13:57:39;32.60;94.00
18654;DHT22;9456;47.824;16.228;2023-08-21T14:00:10;32.60;94.10
18654;DHT22;9456;47.824;16.228;2023-08-21T14:02:40;32.60;94.00
18654;DHT22;9456;47.824;16.228;2023-08-21T14:05:10;32.50;94.00
18654;DHT22;9456;47.824;16.228;2023-08-21T14:07:39;32.50;94.20
18654;DHT22;9456;47.824;16.228;2023-08-21T14:10:09;32.50;94.60
18654;DHT22;9456;47.824;16.228;2023-08-21T14:12:38;32.60;93.90
18654;DHT22;9456;47.824;16.228;2023-08-21T14:15:08;32.60;93.90
18654;DHT22;9456;47.824;16.228;2023-08-21T14:17:38;32.60;94.10
18654;DHT22;9456;47.824;16.228;2023-08-21T14:20:08;32.60;93.80
18654;DHT22;9456;47.824;16.228;2023-08-21T14:22:37;32.60;93.90
18654;DHT22;9456;47.824;16.228;2023-08-21T14:25:07;32.60;93.70
18654;DHT22;9456;47.824;16.228;2023-08-21T14:27:36;32.60;93.40
18654;DHT22;9456;47.824;16.228;2023-08-21T14:30:07;32.70;93.40
18654;DHT22;9456;47.824;16.228;2023-08-21T14:32:36;32.60;93.30
18654;DHT22;9456;47.824;16.228;2023-08-21T14:35:07;32.60;93.10
18654;DHT22;9456;47.824;16.228;2023-08-21T14:37:36;32.60;93.50
18654;DHT22;9456;47.824;16.228;2023-08-21T14:40:06;32.60;93.00
18654;DHT22;9456;47.824;16.228;2023-08-21T14:42:36;32.60;93.20
18654;DHT22;9456;47.824;16.228;2023-08-21T14:45:06;32.60;93.30
18654;DHT22;9456;47.824;16.228;2023-08-21T14:47:35;32.60;93.00
18654;DHT22;9456;47.824;16.228;2023-08-21T14:50:06;32.60;92.80
18654;DHT22;9456;47.824;16.228;2023-08-21T14:52:35;32.60;93.30
18654;DHT22;9456;47.824;16.228;2023-08-21T14:55:04;32.60;93.50
18654;DHT22;9456;47.824;16.228;2023-08-21T14:57:33;32.60;93.40
18654;DHT22;9456;47.824;16.228;2023-08-21T15:00:02;32.60;93.60
18654;DHT22;9456;47.824;16.228;2023-08-21T15:02:36;32.60;93.90
18654;DHT22;9456;47.824;16.228;2023-08-21T15:05:06;32.60;93.80
18654;DHT22;9456;47.824;16.228;2023-08-21T15:07:35;32.60;93.50
18654;DHT22;9456;47.824;16.228;2023-08-21T15:10:05;32.60;93.40
18654;DHT22;9456;47.824;16.228;2023-08-21T15:12:34;32.60;93.40
18654;DHT22;9456;47.824;16.228;2023-08-21T15:15:03;32.60;93.40
18654;DHT22;9456;47.824;16.228;2023-08-21T15:17:32;32.50;93.40
18654;DHT22;9456;47.824;16.228;2023-08-21T15:20:01;32.50;93.50
18654;DHT22;9456;47.824;16.228;2023-08-21T15:22:32;32.50;93.60
18654;DHT22;9456;47.824;16.228;2023-08-21T15:25:01;32.50;93.60
18654;DHT22;9456;47.824;16.228;2023-08-21T15:27:30;32.50;93.60
18654;DHT22;9456;47.824;16.228;2023-08-21T15:29:59;32.40;93.80
18654;DHT22;9456;47.824;16.228;2023-08-21T15:32:28;32.40;93.50
18654;DHT22;9456;47.824;16.228;2023-08-21T15:34:57;32.40;93.50
18654;DHT22;9456;47.824;16.228;2023-08-21T15:37:25;32.40;93.10
18654;DHT22;9456;47.824;16.228;2023-08-21T15:39:55;32.40;93.20
18654;DHT22;9456;47.824;16.228;2023-08-21T15:42:23;32.40;93.10
18654;DHT22;9456;47.824;16.228;2023-08-21T15:44:52;32.30;93.10
18654;DHT22;9456;47.824;16.228;2023-08-21T15:47:21;32.30;93.00
18654;DHT22;9456;47.824;16.228;2023-08-21T15:49:50;32.40;93.20
18654;DHT22;9456;47.824;16.228;2023-08-21T15:52:19;32.30;93.20
18654;DHT22;9456;47.824;16.228;2023-08-21T15:54:48;32.40;93.50